• Join FlightAware (Why Join?)
  • Login
  • US Flag 
09:58AM EDT


 

Airport Tracker/Info


-or-


 

Live Flight TrackerFlight Track Log ✈ UAL5900 ✈ 07-Nov-2013 ✈ KORD - KSYR

Flight Track Log - Related Links

Times and Time Zones

All times are in EST time to prevent confusion due to time zone crossing. See the UAL5900 flight status page for this flight to view local times or setup timezone preferences in your user account.

Time Position Orientation Groundspeed Altitude Reporting Facility
EST Latitude Longitude Course Direction KTS MPH feet Rate Location/Type
02:50PM 42.0000 -87.9333 90° East 169 194 1,300  Level Chicago TRACON
02:51PM 42.0333 -87.9000 37° Northeast 223 257 3,500 1,740 Climbing Chicago TRACON
02:52PM 42.1000 -87.8333 37° Northeast 262 302 5,000 1,680 Climbing Chicago TRACON
02:53PM 42.1361 -87.7989 35° Northeast 261 300 6,600 2,160 Climbing Chicago Center
02:54PM 42.0770 -87.2558 90° East  Level Estimated
02:54PM 42.1697 -87.7075 64° Northeast 274 315 8,800  Level Chicago Center
02:55PM 42.1003 -87.0928 90° East  Level Estimated
02:55PM 42.1622 -87.5931 95° East 300 345 10,500  Level Chicago Center
02:56PM 42.1511 -87.4653 97° East 335 386 11,400 1,260 Climbing Chicago Center
02:58PM 42.1422 -87.1508 92° East 387 445 14,500 1,320 Climbing Chicago Center
02:59PM 42.1461 -87.0036 88° East 392 451 15,700 1,140 Climbing Chicago Center
03:00PM 42.1519 -86.8525 87° East 403 464 16,900 1,080 Climbing Chicago Center
03:01PM 42.1594 -86.6792 87° East 414 476 18,000 1,080 Climbing Chicago Center
03:02PM 42.1647 -86.5225 87° East 418 481 19,200 1,080 Climbing Chicago Center
03:03PM 42.1708 -86.3625 87° East 426 490 20,300 1,080 Climbing Chicago Center
03:04PM 42.1753 -86.2011 88° East 429 494 21,500 1,080 Climbing Chicago Center
03:05PM 42.1808 -86.0378 87° East 434 499 22,600 1,200 Climbing Chicago Center
03:06PM 42.1847 -85.8578 88° East 433 498 24,100 1,200 Climbing Chicago Center
03:07PM 42.1900 -85.6950 87° East 437 503 25,200 1,020 Climbing Chicago Center
03:08PM 42.1947 -85.5339 88° East 435 501 26,300 840 Climbing Chicago Center
03:09PM 42.1981 -85.3708 88° East 437 503 27,000 300 Climbing Chicago Center
03:10PM 42.2036 -85.1650 88° East 457 526 27,000 540 Level Chicago Center
03:11PM 42.2081 -84.9894 88° East 469 540 28,200 1,020 Climbing Chicago Center
03:12PM 42.2108 -84.8186 89° East 460 529 29,200 960 Climbing Chicago Center
03:13PM 42.2139 -84.6483 89° East 457 526 30,200 960 Climbing Chicago Center
03:15PM 42.2186 -84.4764 88° East 460 529 31,200 1,020 Climbing Chicago Center
03:15PM 42.2197 -84.3575 89° East 462 532 31,900 1,020 Climbing Cleveland Center
03:16PM 42.2444 -84.1850 79° East 469 540 32,900 840 Climbing Cleveland Center
03:17PM 42.2694 -84.0111 79° East 474 545 33,700 840 Climbing Cleveland Center
03:18PM 42.2956 -83.8367 79° East 474 545 34,700 600 Climbing Cleveland Center
03:19PM 42.3206 -83.6611 79° East 475 547 35,000 120 Climbing Cleveland Center
03:20PM 42.3472 -83.4694 79° East 481 554 35,000  Level Cleveland Center
03:21PM 42.3747 -83.2861 78° East 489 563 35,000  Level Cleveland Center
03:22PM 42.4053 -83.0681 79° East 497 572 35,000  Level Cleveland Center
03:23PM 42.4319 -82.8808 79° East 504 580 35,000  Level Cleveland Center
03:24PM 42.4583 -82.6906 79° East 512 589 35,000  Level Cleveland Center
03:25PM 42.4839 -82.4994 80° East 515 593 35,000  Level Cleveland Center
03:26PM 42.5097 -82.3078 80° East 519 597 35,000  Level Cleveland Center
03:28PM 42.5361 -82.1153 79° East 521 600 35,000  Level Cleveland Center
03:29PM 42.5672 -81.8839 80° East 522 601 35,000  Level Cleveland Center
03:30PM 42.5936 -81.6792 80° East 522 601 35,000  Level Cleveland Center
03:31PM 42.6183 -81.4842 80° East 520 598 35,000  Level Cleveland Center
03:32PM 42.6425 -81.2889 80° East 518 596 35,000  Level Cleveland Center
03:33PM 42.6669 -81.0936 80° East 519 597 35,000  Level Cleveland Center
03:34PM 42.6908 -80.8958 81° East 522 601 35,000  Level Cleveland Center
03:35PM 42.7144 -80.6975 81° East 526 605 35,000  Level Cleveland Center
03:36PM 42.7392 -80.5008 80° East 527 606 35,000  Level Cleveland Center
03:37PM 42.7628 -80.3031 81° East 525 604 35,000 -300 Level Cleveland Center
03:38PM 42.7894 -80.0711 81° East 527 606 34,400 -780 Descending Cleveland Center
03:39PM 42.8125 -79.8772 81° East 523 602 33,400 -720 Descending Cleveland Center
03:40PM 42.8325 -79.6822 82° East 521 600 33,000 -240 Descending Cleveland Center
03:41PM 42.8542 -79.4867 81° East 521 600 33,000  Level Cleveland Center
03:42PM 42.8747 -79.2894 82° East 528 608 33,000 -540 Level Cleveland Center
03:43PM 42.8992 -79.0525 82° East 528 608 31,900 -1,020 Descending Cleveland Center
03:44PM 42.9197 -78.8508 82° East 535 616 31,000 -960 Descending Cleveland Center
03:45PM 42.9411 -78.6472 82° East 540 621 30,000 -1,020 Descending Cleveland Center
03:46PM 42.9611 -78.4458 82° East 537 618 29,000 -1,020 Descending Cleveland Center
03:47PM 42.9803 -78.2458 82° East 530 610 27,900 -1,740 Descending Cleveland Center
03:48PM 42.9986 -78.0569 82° East 506 582 25,500 -2,520 Descending Cleveland Center
03:49PM 43.0153 -77.8792 83° East 475 547 22,700 -2,460 Descending Cleveland Center
03:50PM 43.0344 -77.6767 83° East 447 514 20,400 -2,040 Descending Cleveland Center
03:51PM 43.0503 -77.5089 83° East 444 511 18,500 -1,800 Descending Cleveland Center
03:52PM 43.0644 -77.3450 83° East 435 501 16,700 -1,920 Descending Cleveland Center
03:53PM 43.0781 -77.1836 83° East 430 495 14,600 -2,040 Descending Cleveland Center
03:54PM 43.0908 -77.0317 83° East 414 476 12,600 -1,800 Descending Cleveland Center
03:55PM 43.1050 -76.8828 83° East 402 463 11,000 -780 Descending Cleveland Center
03:57PM 43.1169 -76.7378 84° East 392 451 11,000 -480 Level Cleveland Center
03:58PM 43.1311 -76.5736 83° East 372 428 10,100 -1,080 Descending Cleveland Center
03:59PM 43.1394 -76.4586 84° East 320 368 8,800 -1,260 Descending Cleveland Center
04:00PM 43.1492 -76.3492 83° East 298 343 7,500 -1,200 Descending Cleveland Center
04:00PM 43.1558 -76.2675 84° East 282 325 6,600 -1,320 Descending Boston Center
04:01PM 43.1575 -76.2425 85° East 272 313 6,200 -1,620 Descending Boston Center
04:02PM 43.1647 -76.1656 83° East 274 315 5,000 -1,620 Descending Boston Center
04:02PM 43.1683 -76.1408 79° East 268 308 4,600 -1,680 Descending Boston Center
04:03PM 43.1819 -76.0342 80° East 281 323 3,100 -1,440 Descending Boston Center
04:04PM 43.1964 -75.9400 78° East 276 318 2,000 -1,140 Descending Boston Center
04:04PM 43.1981 -75.9253 81° East 266 306 2,000  Level Boston Center
04:05PM 43.2078 -75.8494 80° East 259 298 2,000  Level Boston Center
04:05PM 43.2083 -75.8378 86° East 234 269 2,000  Level Boston Center
04:06PM 43.1836 -75.7689 116° Southeast 231 266 2,000  Level Boston Center
04:07PM 43.1500 -75.8167 226° Southwest 177 204 2,000 -60 Level Boston Center
04:08PM 43.1308 -75.8683 243° Southwest 195 224 1,900  Descending Boston Center
04:08PM 43.1267 -75.8794 243° Southwest 179 206 2,000 60 Climbing Boston Center
04:09PM 43.1119 -75.9419 252° West 174 200 2,000  Level Boston Center
04:10PM 43.1125 -75.9928 271° West 176 203 2,000 -240 Level Boston Center
04:10PM 43.1103 -76.0028 253° West 159 183 1,800 -900 Descending Boston Center
04:11PM 43.1108 -76.0428 271° West 151 174 1,100 -780 Descending Boston Center
04:11PM 43.1094 -76.0581 263° West 121 139 1,000 -720 Descending Boston Center
04:12PM 43.1097 -76.0928 271° West 138 159 400 -720 Descending Boston Center